Lewisville's Hourly Summary for Friday, April 14, 2017
Hour Temp
(f)
RH
(%)
Solar Rad.
(MJ/m2)
Rainfall
(in)
Wind
(mph)
4/14/2017 12:00 AM 71 61 0 0 4.74
4/14/2017 1:00 AM 70 65 0 0 4.9
4/14/2017 2:00 AM 70 55 0 0 7.45
4/14/2017 3:00 AM 70 54 0 0 9.14
4/14/2017 4:00 AM 69 60 0 0 10.16
4/14/2017 5:00 AM 69 66 0 0 8.25
4/14/2017 6:00 AM 68 72 0 0 7.69
4/14/2017 7:00 AM 67 77 0 0 7.08
4/14/2017 8:00 AM 67 78 0.16 0 5.7
4/14/2017 9:00 AM 67 80 0.33 0 6.23
4/14/2017 10:00 AM 68 75 0.48 0 6.56
4/14/2017 11:00 AM 69 71 1.44 0 8.28
4/14/2017 12:00 PM 70 65 1.54 0 9.25
4/14/2017 1:00 PM 73 53 2.34 0 9.79
4/14/2017 2:00 PM 76 48 2.95 0 10.4
4/14/2017 3:00 PM 77 47 3 0 10.81
4/14/2017 4:00 PM 77 45 2.38 0 10.21
4/14/2017 5:00 PM 78 44 2.12 0 10.05
4/14/2017 6:00 PM 78 44 1.62 0 9.39
4/14/2017 7:00 PM 77 49 0.54 0 9.18
4/14/2017 8:00 PM 76 51 0.17 0 8.16
4/14/2017 9:00 PM 74 53 0 0 6.77
4/14/2017 10:00 PM 72 57 0 0 3.56
4/14/2017 11:00 PM 70 61 0 0 2.81
Data Summary 71 59 19.07 0.00 7.77